createdAt,value
2018-09-15T00:00:40.524Z,98933.80
2018-09-15T00:03:12.340Z,98932.50
2018-09-15T00:05:44.230Z,98936.01
2018-09-15T00:08:16.312Z,98934.51
2018-09-15T00:10:49.235Z,98943.02
2018-09-15T00:13:22.415Z,98936.67
2018-09-15T00:15:54.293Z,98943.34
2018-09-15T00:18:27.359Z,98943.34
2018-09-15T00:20:59.070Z,98952.02
2018-09-15T00:23:30.837Z,98966.05
2018-09-15T00:26:02.749Z,98962.36
2018-09-15T00:28:34.361Z,98956.52
2018-09-15T00:31:06.301Z,98962.36
2018-09-15T00:33:38.085Z,98969.36
2018-09-15T00:36:09.924Z,98972.03
2018-09-15T00:38:41.695Z,98966.05
2018-09-15T00:41:13.333Z,98966.72
2018-09-15T00:43:45.146Z,98976.06
2018-09-15T00:46:17.004Z,98973.73
2018-09-15T00:48:48.706Z,98981.73
2018-09-15T00:51:20.546Z,98983.73
2018-09-15T00:53:52.438Z,98997.73
2018-09-15T00:56:24.502Z,98993.07
2018-09-15T00:58:56.592Z,98994.41
2018-09-15T01:01:33.116Z,98997.73
2018-09-15T01:04:05.557Z,98999.07
2018-09-15T01:06:37.454Z,98998.40
2018-09-15T01:09:10.918Z,99001.91
2018-09-15T01:11:43.086Z,99004.41
2018-09-15T01:14:15.132Z,99010.91
2018-09-15T01:16:46.871Z,99013.08
2018-09-15T01:19:19.001Z,99018.23
2018-09-15T01:21:51.068Z,99022.41
2018-09-15T01:24:22.908Z,99018.73
2018-09-15T01:26:55.081Z,99015.42
2018-09-15T01:29:26.829Z,99025.43
2018-09-15T01:31:58.752Z,99025.91
2018-09-15T01:34:30.309Z,99023.73
2018-09-15T01:37:02.126Z,99027.41
2018-09-15T01:39:33.873Z,99025.91
2018-09-15T01:42:05.672Z,99025.73
2018-09-15T01:44:37.485Z,99031.06
2018-09-15T01:47:09.251Z,99032.41
2018-09-15T01:49:41.205Z,99033.09
2018-09-15T01:52:13.153Z,99041.09
2018-09-15T01:54:45.074Z,99045.44
2018-09-15T01:57:16.785Z,99052.43
2018-09-15T01:59:48.537Z,99050.27
2018-09-15T02:02:20.406Z,99053.77
2018-09-15T02:04:52.264Z,99063.42
2018-09-15T02:07:23.902Z,99061.09
2018-09-15T02:09:55.709Z,99056.44
2018-09-15T02:12:27.862Z,99062.11
2018-09-15T02:14:59.860Z,99058.27
2018-09-15T02:17:31.723Z,99073.10
2018-09-15T02:20:03.844Z,99067.27
2018-09-15T02:24:51.454Z,99071.77
2018-09-15T02:27:23.224Z,99073.10
2018-09-15T02:29:55.145Z,99080.27
2018-09-15T02:32:26.876Z,99084.96
2018-09-15T02:34:59.014Z,99089.60
2018-09-15T02:37:30.780Z,99087.13
2018-09-15T02:40:02.708Z,99093.46
2018-09-15T02:42:34.356Z,99102.11
2018-09-15T02:45:06.326Z,99102.61
2018-09-15T02:47:38.178Z,99102.13
2018-09-15T02:50:10.047Z,99108.13
2018-09-15T02:52:42.146Z,99109.80
2018-09-15T02:55:13.979Z,99109.80
2018-09-15T02:57:45.898Z,99119.30
2018-09-15T03:00:17.732Z,99118.30
2018-09-15T03:02:49.666Z,99115.13
2018-09-15T03:05:21.533Z,99125.47
2018-09-15T03:07:53.311Z,99139.14
2018-09-15T03:10:25.318Z,99140.30
2018-09-15T03:12:57.030Z,99140.78
2018-09-15T03:15:28.850Z,99136.14
2018-09-15T03:18:00.749Z,99135.30
2018-09-15T03:20:32.671Z,99135.80
2018-09-15T03:23:04.711Z,99143.14
2018-09-15T03:25:36.471Z,99144.98
2018-09-15T03:28:08.225Z,99150.13
2018-09-15T03:30:40.243Z,99154.48
2018-09-15T03:33:12.112Z,99152.96
2018-09-15T03:35:43.948Z,99158.80
2018-09-15T03:38:15.825Z,99160.80
2018-09-15T03:40:47.459Z,99166.14
2018-09-15T03:43:20.245Z,99159.47
2018-09-15T03:45:53.507Z,99163.31
2018-09-15T03:48:25.293Z,99166.14
2018-09-15T03:50:57.123Z,99173.64
2018-09-15T03:53:28.648Z,99174.81
2018-09-15T03:56:00.797Z,99176.31
2018-09-15T03:58:32.401Z,99178.32
2018-09-15T04:01:04.349Z,99172.48
2018-09-15T04:03:35.896Z,99170.81
2018-09-15T04:06:07.816Z,99174.12
2018-09-15T04:08:39.674Z,99172.48
2018-09-15T04:11:11.599Z,99176.49
2018-09-15T04:13:43.417Z,99183.16
2018-09-15T04:16:15.056Z,99185.83
2018-09-15T04:18:47.734Z,99183.96
2018-09-15T04:21:19.613Z,99187.47
2018-09-15T04:23:51.470Z,99192.30
2018-09-15T04:26:23.416Z,99189.48
2018-09-15T04:28:55.240Z,99196.48
2018-09-15T04:31:27.246Z,99193.32
2018-09-15T04:33:59.165Z,99192.48
2018-09-15T04:36:31.441Z,99193.81
2018-09-15T04:39:03.283Z,99197.32
2018-09-15T04:41:35.337Z,99194.49
2018-09-15T04:44:07.157Z,99198.84
2018-09-15T04:46:38.892Z,99197.80
2018-09-15T04:49:10.656Z,99200.66
2018-09-15T04:51:42.540Z,99200.64
2018-09-15T04:54:14.425Z,99201.66
2018-09-15T04:56:46.693Z,99200.48
2018-09-15T04:59:18.347Z,99206.47
2018-09-15T05:01:50.132Z,99204.98
2018-09-15T05:04:21.790Z,99196.80
2018-09-15T05:06:53.756Z,99206.47
2018-09-15T05:09:25.628Z,99205.64
2018-09-15T05:11:57.649Z,99202.14
2018-09-15T05:14:29.388Z,99201.81
2018-09-15T05:17:01.268Z,99203.14
2018-09-15T05:19:33.293Z,99205.66
2018-09-15T05:22:05.250Z,99200.16
2018-09-15T05:24:37.134Z,99203.81
2018-09-15T05:27:08.834Z,99191.64
2018-09-15T05:29:40.571Z,99191.98
2018-09-15T05:32:12.494Z,99190.65
2018-09-15T05:34:44.109Z,99192.48
2018-09-15T05:37:16.082Z,99185.16
2018-09-15T05:39:47.606Z,99180.81
2018-09-15T05:42:19.542Z,99176.31
2018-09-15T05:44:51.570Z,99172.66
2018-09-15T05:47:23.377Z,99165.80
2018-09-15T05:49:55.185Z,99169.47
2018-09-15T05:52:27.144Z,99156.80
2018-09-15T05:54:59.223Z,99168.14
2018-09-15T05:57:30.952Z,99171.14
2018-09-15T06:00:02.700Z,99166.14
2018-09-15T06:02:34.658Z,99161.15
2018-09-15T06:05:06.843Z,99164.95
2018-09-15T06:07:38.937Z,99163.50
2018-09-15T06:10:10.818Z,99162.50
2018-09-15T06:12:42.512Z,99154.83
2018-09-15T06:15:14.237Z,99154.17
2018-09-15T06:17:47.428Z,99150.48
2018-09-15T06:20:19.210Z,99155.31
2018-09-15T06:22:51.037Z,99153.81
2018-09-15T06:25:22.607Z,99150.65
2018-09-15T06:27:54.174Z,99144.31
2018-09-15T06:30:25.791Z,99146.48
2018-09-15T06:32:57.602Z,99147.82
2018-09-15T06:35:29.705Z,99138.48
2018-09-15T06:38:01.751Z,99130.14
2018-09-15T06:40:33.452Z,99133.48
2018-09-15T06:43:05.394Z,99124.98
2018-09-15T06:45:37.229Z,99126.47
2018-09-15T06:48:09.115Z,99124.48
2018-09-15T06:50:40.943Z,99125.81
2018-09-15T06:53:12.764Z,99120.28
2018-09-15T06:55:44.180Z,99123.63
2018-09-15T06:58:16.101Z,99112.78
2018-09-15T07:00:48.054Z,99114.45
2018-09-15T07:03:20.040Z,99105.45
2018-09-15T07:05:51.863Z,99102.78
2018-09-15T07:08:23.737Z,99103.42
2018-09-15T07:10:55.506Z,99102.58
2018-09-15T07:13:27.276Z,99107.09
2018-09-15T07:15:59.090Z,99096.75
2018-09-15T07:18:31.470Z,99090.27
2018-09-15T07:21:03.682Z,99089.23
2018-09-15T07:23:35.438Z,99085.23
2018-09-15T07:26:07.192Z,99078.06
2018-09-15T07:28:38.896Z,99069.72
2018-09-15T07:31:10.761Z,99067.05
2018-09-15T07:33:42.473Z,99062.05
2018-09-15T07:36:13.915Z,99058.05
2018-09-15T07:38:45.863Z,99057.05
2018-09-15T07:41:17.367Z,99046.70
2018-09-15T07:43:49.094Z,99045.37
2018-09-15T07:46:20.807Z,99050.05
2018-09-15T07:48:52.567Z,99045.04
2018-09-15T07:51:24.272Z,99035.50
2018-09-15T07:53:56.132Z,99033.66
2018-09-15T07:56:27.733Z,99024.33
2018-09-15T07:58:59.298Z,99030.50
2018-09-15T08:01:31.701Z,99023.83
2018-09-15T08:04:03.783Z,99022.83
2018-09-15T08:06:35.567Z,99022.66
2018-09-15T08:09:08.482Z,99022.48
2018-09-15T08:11:40.158Z,99016.15
2018-09-15T08:14:12.008Z,99011.48
2018-09-15T08:16:43.776Z,99007.48
2018-09-15T08:19:15.913Z,99009.14
2018-09-15T08:21:47.569Z,99000.13
2018-09-15T08:24:20.031Z,99001.27
2018-09-15T08:26:51.718Z,98997.59
2018-09-15T08:29:23.518Z,98988.59
2018-09-15T08:31:55.138Z,98985.75
2018-09-15T08:34:27.121Z,98982.91
2018-09-15T08:36:58.704Z,98986.92
2018-09-15T08:39:30.261Z,98977.58
2018-09-15T08:42:01.983Z,98971.73
2018-09-15T08:44:33.830Z,98973.91
2018-09-15T08:47:05.468Z,98964.56
2018-09-15T08:49:37.309Z,98960.55
2018-09-15T08:52:09.013Z,98953.18
2018-09-15T08:54:40.835Z,98947.34
2018-09-15T08:57:12.558Z,98943.66
2018-09-15T08:59:44.437Z,98938.83
2018-09-15T09:02:16.085Z,98938.33
2018-09-15T09:04:48.001Z,98930.64
2018-09-15T09:07:19.473Z,98928.81
2018-09-15T09:09:51.309Z,98925.47
2018-09-15T09:12:23.115Z,98923.94
2018-09-15T09:14:54.815Z,98925.27
2018-09-15T09:17:26.758Z,98924.77
2018-09-15T09:19:59.054Z,98923.27
2018-09-15T09:22:30.522Z,98920.95
2018-09-15T09:25:02.365Z,98912.44
2018-09-15T09:27:33.825Z,98925.30
2018-09-15T09:30:05.583Z,98913.78
2018-09-15T09:32:37.545Z,98918.95
2018-09-15T09:35:09.427Z,98913.11
2018-09-15T09:37:41.087Z,98907.44
2018-09-15T09:40:12.839Z,98907.77
2018-09-15T09:42:44.795Z,98901.72
2018-09-15T09:45:16.406Z,98908.73
2018-09-15T09:47:48.320Z,98900.05
2018-09-15T09:50:19.959Z,98898.05
2018-09-15T09:52:51.638Z,98897.38
2018-09-15T09:55:23.200Z,98887.35
2018-09-15T09:57:54.862Z,98888.98
2018-09-15T10:00:31.472Z,98887.36
2018-09-15T10:03:03.140Z,98881.08
2018-09-15T10:05:34.817Z,98878.80
2018-09-15T10:08:06.833Z,98876.84
2018-09-15T10:10:38.583Z,98884.52
2018-09-15T10:13:10.295Z,98874.84
2018-09-15T10:15:43.082Z,98868.95
2018-09-15T10:18:14.752Z,98867.57
2018-09-15T10:20:47.469Z,98866.73
2018-09-15T10:23:19.170Z,98865.35
2018-09-15T10:25:51.042Z,98871.34
2018-09-15T10:28:22.610Z,98862.16
2018-09-15T10:30:54.385Z,98860.31
2018-09-15T10:33:27.004Z,98859.94
2018-09-15T10:35:59.075Z,98856.27
2018-09-15T10:38:30.549Z,98851.58
2018-09-15T10:41:02.409Z,98847.58
2018-09-15T10:43:33.809Z,98850.91
2018-09-15T10:46:05.654Z,98848.53
2018-09-15T10:48:37.286Z,98852.70
2018-09-15T10:51:10.142Z,98850.86
2018-09-15T10:53:41.762Z,98846.17
2018-09-15T10:56:13.276Z,98843.51
2018-09-15T10:58:45.807Z,98837.16
2018-09-15T11:01:17.674Z,98838.79
2018-09-15T11:03:49.527Z,98839.78
2018-09-15T11:06:22.126Z,98838.77
2018-09-15T11:08:53.678Z,98832.09
2018-09-15T11:11:25.532Z,98834.84
2018-09-15T11:13:57.127Z,98835.55
2018-09-15T11:16:29.044Z,98838.95
2018-09-15T11:19:00.657Z,98844.30
2018-09-15T11:21:32.548Z,98837.06
2018-09-15T11:24:04.134Z,98832.51
2018-09-15T11:26:35.589Z,98830.83
2018-09-15T11:29:07.339Z,98826.98
2018-09-15T11:31:38.976Z,98824.09
2018-09-15T11:34:10.584Z,98824.75
2018-09-15T11:36:42.695Z,98828.27
2018-09-15T11:39:14.442Z,98827.91
2018-09-15T11:41:46.179Z,98820.73
2018-09-15T11:44:17.797Z,98818.89
2018-09-15T11:46:49.701Z,98823.53
2018-09-15T11:49:21.254Z,98820.68
2018-09-15T11:51:53.176Z,98810.65
2018-09-15T11:54:25.128Z,98814.33
2018-09-15T11:56:56.602Z,98813.98
2018-09-15T11:59:28.387Z,98818.78
2018-09-15T12:02:00.302Z,98816.12
2018-09-15T12:04:31.901Z,98815.31
2018-09-15T12:07:03.595Z,98816.44
2018-09-15T12:09:35.135Z,98806.59
2018-09-15T12:12:06.690Z,98812.77
2018-09-15T12:14:38.229Z,98812.27
2018-09-15T12:17:09.905Z,98807.92
2018-09-15T12:19:42.238Z,98810.92
2018-09-15T12:22:14.118Z,98814.10
2018-09-15T12:24:45.698Z,98816.09
2018-09-15T12:27:17.394Z,98819.09
2018-09-15T12:29:48.984Z,98814.25
2018-09-15T12:32:20.887Z,98816.42
2018-09-15T12:34:52.484Z,98814.25
2018-09-15T12:37:24.177Z,98816.42
2018-09-15T12:39:55.824Z,98816.42
2018-09-15T12:42:27.621Z,98819.42
2018-09-15T12:44:59.251Z,98814.58
2018-09-15T12:47:31.010Z,98818.59
2018-09-15T12:50:02.517Z,98816.09
2018-09-15T12:52:34.571Z,98816.92
2018-09-15T12:55:06.531Z,98810.42
2018-09-15T12:57:38.179Z,98814.25
2018-09-15T13:00:09.992Z,98816.59
2018-09-15T13:02:41.811Z,98813.75
2018-09-15T13:05:13.710Z,98816.09
2018-09-15T13:07:45.605Z,98812.01
2018-09-15T13:10:17.779Z,98814.47
2018-09-15T13:12:49.713Z,98815.28
2018-09-15T13:15:21.580Z,98821.42
2018-09-15T13:17:53.377Z,98825.77
2018-09-15T13:20:25.316Z,98816.41
2018-09-15T13:22:56.934Z,98822.27
2018-09-15T13:25:29.371Z,98826.77
2018-09-15T13:28:01.538Z,98829.14
2018-09-15T13:30:34.217Z,98821.63
2018-09-15T13:33:06.573Z,98823.80
2018-09-15T13:35:38.428Z,98825.14
2018-09-15T13:38:10.511Z,98826.98
2018-09-15T13:40:43.354Z,98828.48
2018-09-15T13:43:15.719Z,98825.31
2018-09-15T13:45:48.814Z,98826.64
2018-09-15T13:48:21.575Z,98829.14
2018-09-15T13:50:53.514Z,98835.32
2018-09-15T13:53:26.136Z,98831.16
2018-09-15T13:55:58.005Z,98832.82
2018-09-15T13:58:29.925Z,98840.33
2018-09-15T14:01:02.624Z,98841.16
2018-09-15T14:03:35.128Z,98852.35
2018-09-15T14:06:07.601Z,98852.35
2018-09-15T14:08:39.894Z,98852.86
2018-09-15T14:11:11.673Z,98856.86
2018-09-15T14:13:43.570Z,98862.70
2018-09-15T14:16:15.820Z,98861.88
2018-09-15T14:18:47.811Z,98864.87
2018-09-15T14:21:19.748Z,98861.88
2018-09-15T14:23:51.416Z,98867.22
2018-09-15T14:26:23.155Z,98869.72
2018-09-15T14:28:54.681Z,98871.72
2018-09-15T14:31:26.636Z,98871.22
2018-09-15T14:33:59.611Z,98879.23
2018-09-15T14:36:31.320Z,98877.73
2018-09-15T14:39:03.765Z,98880.91
2018-09-15T14:41:35.597Z,98885.23
2018-09-15T14:44:07.255Z,98873.72
2018-09-15T14:46:38.950Z,98889.25
2018-09-15T14:49:10.523Z,98885.53
2018-09-15T14:51:42.210Z,98883.91
2018-09-15T14:54:14.030Z,98887.91
2018-09-15T14:56:45.754Z,98881.73
2018-09-15T14:59:17.588Z,98892.22
2018-09-15T15:01:49.324Z,98894.59
2018-09-15T15:04:21.244Z,98892.42
2018-09-15T15:06:54.233Z,98901.27
2018-09-15T15:09:26.037Z,98897.26
2018-09-15T15:11:58.145Z,98898.27
2018-09-15T15:14:29.975Z,98895.27
2018-09-15T15:17:01.644Z,98902.27
2018-09-15T15:19:33.411Z,98903.27
2018-09-15T15:22:05.038Z,98898.27
2018-09-15T15:24:36.831Z,98902.45
2018-09-15T15:27:08.484Z,98906.11
2018-09-15T15:29:40.337Z,98900.23
2018-09-15T15:32:11.986Z,98902.60
2018-09-15T15:34:43.666Z,98904.23
2018-09-15T15:37:15.317Z,98909.08
2018-09-15T15:39:46.933Z,98909.91
2018-09-15T15:42:18.708Z,98910.52
2018-09-15T15:44:50.696Z,98900.50
2018-09-15T15:47:22.377Z,98904.33
2018-09-15T15:49:54.489Z,98903.33
2018-09-15T15:52:26.123Z,98910.16
2018-09-15T15:54:57.940Z,98914.97
2018-09-15T15:57:29.917Z,98914.80
2018-09-15T16:00:01.762Z,98916.97
2018-09-15T16:02:33.384Z,98923.81
2018-09-15T16:05:05.561Z,98919.80
2018-09-15T16:07:37.742Z,98908.61
2018-09-15T16:10:09.383Z,98916.45
2018-09-15T16:12:40.917Z,98915.12
2018-09-15T16:15:12.721Z,98912.44
2018-09-15T16:17:44.743Z,98911.91
2018-09-15T16:20:16.783Z,98915.91
2018-09-15T16:22:49.077Z,98913.78
2018-09-15T16:25:20.838Z,98912.74
2018-09-15T16:27:53.241Z,98914.08
2018-09-15T16:30:24.710Z,98911.41
2018-09-15T16:32:56.435Z,98910.06
2018-09-15T16:35:28.285Z,98907.39
2018-09-15T16:37:59.744Z,98910.06
2018-09-15T16:40:31.550Z,98910.06
2018-09-15T16:43:03.028Z,98905.77
2018-09-15T16:45:35.149Z,98911.91
2018-09-15T16:48:07.255Z,98914.41
2018-09-15T16:50:38.971Z,98911.73
2018-09-15T16:53:10.657Z,98902.38
2018-09-15T16:55:42.480Z,98909.39
2018-09-15T16:58:14.166Z,98904.55
2018-09-15T17:00:45.859Z,98904.05
2018-09-15T17:03:17.519Z,98906.22
2018-09-15T17:05:49.184Z,98902.53
2018-09-15T17:08:20.765Z,98901.05
2018-09-15T17:10:54.013Z,98899.70
2018-09-15T17:13:25.437Z,98905.05
2018-09-15T17:15:57.301Z,98898.75
2018-09-15T17:18:28.709Z,98899.76
2018-09-15T17:21:00.488Z,98903.09
2018-09-15T17:23:32.368Z,98901.75
2018-09-15T17:26:04.191Z,98897.09
2018-09-15T17:28:35.637Z,98902.43
2018-09-15T17:31:07.713Z,98899.76
2018-09-15T17:33:39.678Z,98901.93
2018-09-15T17:36:11.434Z,98907.09
2018-09-15T17:38:43.216Z,98906.56
2018-09-15T17:41:15.144Z,98906.39
2018-09-15T17:43:46.750Z,98900.72
2018-09-15T17:46:18.663Z,98906.56
2018-09-15T17:48:50.918Z,98905.23
2018-09-15T17:51:22.978Z,98900.42
2018-09-15T17:53:54.855Z,98892.41
2018-09-15T17:56:26.843Z,98893.41
2018-09-15T17:58:58.733Z,98885.39
2018-09-15T18:01:30.717Z,98878.38
2018-09-15T18:04:02.398Z,98885.06
2018-09-15T18:06:34.385Z,98887.73
2018-09-15T18:09:07.207Z,98886.57
2018-09-15T18:11:40.106Z,98887.91
2018-09-15T18:14:12.459Z,98886.75
2018-09-15T18:16:44.283Z,98888.58
2018-09-15T18:19:16.222Z,98886.75
2018-09-15T18:21:48.479Z,98888.08
2018-09-15T18:24:20.199Z,98885.73
2018-09-15T18:26:52.373Z,98891.08
2018-09-15T18:29:24.176Z,98888.08
2018-09-15T18:31:55.975Z,98889.75
2018-09-15T18:34:28.617Z,98891.08
2018-09-15T18:37:00.870Z,98892.75
2018-09-15T18:39:32.317Z,98897.26
2018-09-15T18:42:04.345Z,98895.42
2018-09-15T18:44:36.111Z,98895.42
2018-09-15T18:47:07.944Z,98895.75
2018-09-15T18:49:39.642Z,98897.81
2018-09-15T18:52:11.544Z,98889.80
2018-09-15T18:54:43.657Z,98893.09
2018-09-15T18:57:15.543Z,98892.92
2018-09-15T18:59:47.674Z,98894.26
2018-09-15T19:02:19.475Z,98891.26
2018-09-15T19:04:51.242Z,98890.75
2018-09-15T19:07:23.114Z,98888.41
2018-09-15T19:09:54.917Z,98892.09
2018-09-15T19:12:26.466Z,98883.74
2018-09-15T19:14:58.208Z,98882.56
2018-09-15T19:17:29.890Z,98877.39
2018-09-15T19:20:01.595Z,98880.90
2018-09-15T19:22:34.594Z,98884.58
2018-09-15T19:25:06.646Z,98877.77
2018-09-15T19:27:38.686Z,98877.95
2018-09-15T19:30:10.326Z,98873.94
2018-09-15T19:32:42.288Z,98878.45
2018-09-15T19:35:14.123Z,98866.42
2018-09-15T19:37:45.895Z,98870.44
2018-09-15T19:40:17.565Z,98865.09
2018-09-15T19:42:49.171Z,98862.42
2018-09-15T19:45:20.923Z,98863.58
2018-09-15T19:47:52.620Z,98862.42
2018-09-15T19:50:24.799Z,98857.08
2018-09-15T19:52:56.764Z,98860.42
2018-09-15T19:55:28.436Z,98856.58
2018-09-15T19:58:00.362Z,98860.75
2018-09-15T20:00:32.270Z,98855.73
2018-09-15T20:03:03.821Z,98850.91
2018-09-15T20:05:35.723Z,98850.06
2018-09-15T20:08:07.579Z,98844.22
2018-09-15T20:10:39.274Z,98843.06
2018-09-15T20:13:11.065Z,98838.72
2018-09-15T20:15:40.061Z,98839.55
2018-09-15T20:18:08.932Z,98841.39
2018-09-15T20:20:38.196Z,98832.55
2018-09-15T20:23:09.856Z,98831.72
2018-09-15T20:25:41.675Z,98824.23
2018-09-15T20:28:13.313Z,98826.38
2018-09-15T20:30:45.153Z,98822.06
2018-09-15T20:33:17.136Z,98822.90
2018-09-15T20:35:49.119Z,98821.41
2018-09-15T20:38:20.814Z,98824.75
2018-09-15T20:40:52.457Z,98818.41
2018-09-15T20:43:24.037Z,98827.76
2018-09-15T20:45:55.948Z,98824.08
2018-09-15T20:48:27.574Z,98816.75
2018-09-15T20:50:59.401Z,98811.40
2018-09-15T20:53:31.100Z,98812.73
2018-09-15T20:56:02.854Z,98812.73
2018-09-15T20:58:34.438Z,98819.09
2018-09-15T21:01:06.285Z,98811.58
2018-09-15T21:03:37.728Z,98802.44
2018-09-15T21:06:09.716Z,98806.94
2018-09-15T21:08:41.411Z,98803.61
2018-09-15T21:11:13.247Z,98795.42
2018-09-15T21:13:44.950Z,98792.42
2018-09-15T21:16:16.767Z,98795.75
2018-09-15T21:18:48.550Z,98788.75
2018-09-15T21:21:20.371Z,98783.08
2018-09-15T21:23:54.583Z,98784.23
2018-09-15T21:26:26.302Z,98784.74
2018-09-15T21:28:58.410Z,98784.41
2018-09-15T21:31:30.155Z,98783.91
2018-09-15T21:34:02.104Z,98781.41
2018-09-15T21:36:33.758Z,98780.08
2018-09-15T21:39:05.852Z,98780.58
2018-09-15T21:41:37.820Z,98780.58
2018-09-15T21:44:09.586Z,98779.75
2018-09-15T21:46:41.390Z,98786.09
2018-09-15T21:49:13.080Z,98781.77
2018-09-15T21:51:44.857Z,98783.63
2018-09-15T21:54:16.560Z,98786.80
2018-09-15T21:56:48.368Z,98787.11
2018-09-15T21:59:19.782Z,98781.47
2018-09-15T22:01:51.569Z,98781.14
2018-09-15T22:04:24.100Z,98781.14
2018-09-15T22:06:56.033Z,98779.80
2018-09-15T22:09:27.547Z,98780.30
2018-09-15T22:11:59.456Z,98784.98
2018-09-15T22:14:31.225Z,98791.84
2018-09-15T22:17:03.014Z,98788.81
2018-09-15T22:19:35.699Z,98787.16
2018-09-15T22:22:07.443Z,98792.17
2018-09-15T22:24:39.433Z,98790.83
2018-09-15T22:27:11.044Z,98790.33
2018-09-15T22:29:42.776Z,98788.84
2018-09-15T22:32:14.631Z,98786.17
2018-09-15T22:34:46.478Z,98786.38
2018-09-15T22:37:18.781Z,98792.22
2018-09-15T22:39:50.868Z,98784.38
2018-09-15T22:42:22.608Z,98787.55
2018-09-15T22:44:54.602Z,98789.39
2018-09-15T22:47:26.501Z,98785.23
2018-09-15T22:49:58.657Z,98791.07
2018-09-15T22:52:31.077Z,98797.58
2018-09-15T22:55:03.807Z,98798.23
2018-09-15T22:57:35.913Z,98803.91
2018-09-15T23:00:07.693Z,98803.91
2018-09-15T23:02:39.287Z,98801.25
2018-09-15T23:05:11.097Z,98798.58
2018-09-15T23:07:43.066Z,98806.61
2018-09-15T23:10:15.331Z,98804.63
2018-09-15T23:12:47.034Z,98803.09
2018-09-15T23:15:18.955Z,98800.62
2018-09-15T23:17:50.875Z,98801.62
2018-09-15T23:20:23.080Z,98801.12
2018-09-15T23:22:55.070Z,98795.59
2018-09-15T23:25:27.103Z,98796.94
2018-09-15T23:27:59.674Z,98804.61
2018-09-15T23:30:31.725Z,98802.11
2018-09-15T23:33:03.837Z,98805.99
2018-09-15T23:35:35.864Z,98810.33
2018-09-15T23:38:07.993Z,98808.66
2018-09-15T23:40:40.035Z,98807.17
2018-09-15T23:43:12.411Z,98811.34
2018-09-15T23:45:44.283Z,98810.66
2018-09-15T23:48:16.192Z,98813.00
2018-09-15T23:50:48.248Z,98815.84
2018-09-15T23:53:20.456Z,98819.34
2018-09-15T23:55:53.046Z,98822.23
2018-09-15T23:58:24.967Z,98828.70
